sensor_id;sensor_type;location;lat;lon;timestamp;P1;durP1;ratioP1;P2;durP2;ratioP2
62852;SDS011;49205;44.868;38.140;2022-10-14T00:01:29;20.82;;;12.60;;
62852;SDS011;49205;44.868;38.140;2022-10-14T00:03:59;19.55;;;12.25;;
62852;SDS011;49205;44.868;38.140;2022-10-14T00:06:29;21.62;;;13.48;;
62852;SDS011;49205;44.868;38.140;2022-10-14T00:09:05;20.88;;;12.05;;
62852;SDS011;49205;44.868;38.140;2022-10-14T00:11:32;20.40;;;12.40;;
62852;SDS011;49205;44.868;38.140;2022-10-14T00:14:07;18.48;;;11.95;;
62852;SDS011;49205;44.868;38.140;2022-10-14T00:16:38;23.42;;;12.30;;
62852;SDS011;49205;44.868;38.140;2022-10-14T00:19:09;21.37;;;12.20;;
62852;SDS011;49205;44.868;38.140;2022-10-14T00:21:39;19.45;;;11.93;;
62852;SDS011;49205;44.868;38.140;2022-10-14T00:24:11;25.25;;;12.90;;
62852;SDS011;49205;44.868;38.140;2022-10-14T00:26:40;19.37;;;12.55;;
62852;SDS011;49205;44.868;38.140;2022-10-14T00:29:13;26.87;;;13.68;;
62852;SDS011;49205;44.868;38.140;2022-10-14T00:31:45;19.62;;;12.23;;
62852;SDS011;49205;44.868;38.140;2022-10-14T00:34:15;25.23;;;12.68;;
62852;SDS011;49205;44.868;38.140;2022-10-14T00:36:44;21.23;;;11.38;;
62852;SDS011;49205;44.868;38.140;2022-10-14T00:39:15;18.62;;;11.80;;
62852;SDS011;49205;44.868;38.140;2022-10-14T00:41:45;20.62;;;12.50;;
62852;SDS011;49205;44.868;38.140;2022-10-14T00:46:47;20.45;;;11.53;;
62852;SDS011;49205;44.868;38.140;2022-10-14T00:49:18;21.02;;;11.65;;
62852;SDS011;49205;44.868;38.140;2022-10-14T00:52:05;18.35;;;11.03;;
62852;SDS011;49205;44.868;38.140;2022-10-14T00:54:46;18.10;;;10.58;;
62852;SDS011;49205;44.868;38.140;2022-10-14T00:57:16;19.40;;;10.03;;
62852;SDS011;49205;44.868;38.140;2022-10-14T00:59:45;20.32;;;11.90;;
62852;SDS011;49205;44.868;38.140;2022-10-14T01:02:15;17.67;;;10.48;;
62852;SDS011;49205;44.868;38.140;2022-10-14T01:04:44;22.50;;;10.95;;
62852;SDS011;49205;44.868;38.140;2022-10-14T01:07:21;18.42;;;10.95;;
62852;SDS011;49205;44.868;38.140;2022-10-14T01:13:24;19.35;;;10.05;;
62852;SDS011;49205;44.868;38.140;2022-10-14T01:15:20;18.07;;;10.82;;
62852;SDS011;49205;44.868;38.140;2022-10-14T01:31:40;19.80;;;11.80;;
62852;SDS011;49205;44.868;38.140;2022-10-14T01:34:12;15.18;;;10.43;;
62852;SDS011;49205;44.868;38.140;2022-10-14T01:36:44;23.02;;;12.18;;
62852;SDS011;49205;44.868;38.140;2022-10-14T01:39:19;18.05;;;11.35;;
62852;SDS011;49205;44.868;38.140;2022-10-14T01:42:14;20.00;;;11.05;;
62852;SDS011;49205;44.868;38.140;2022-10-14T01:44:40;18.00;;;10.93;;
62852;SDS011;49205;44.868;38.140;2022-10-14T01:47:12;17.95;;;10.63;;
62852;SDS011;49205;44.868;38.140;2022-10-14T01:49:45;21.93;;;11.70;;
62852;SDS011;49205;44.868;38.140;2022-10-14T01:52:21;17.80;;;10.45;;
62852;SDS011;49205;44.868;38.140;2022-10-14T01:54:48;16.25;;;9.93;;
62852;SDS011;49205;44.868;38.140;2022-10-14T01:57:20;18.00;;;10.70;;
62852;SDS011;49205;44.868;38.140;2022-10-14T01:59:52;20.52;;;10.60;;
62852;SDS011;49205;44.868;38.140;2022-10-14T02:02:23;13.90;;;10.65;;
62852;SDS011;49205;44.868;38.140;2022-10-14T02:04:52;14.75;;;9.55;;
62852;SDS011;49205;44.868;38.140;2022-10-14T02:07:26;15.35;;;9.95;;
62852;SDS011;49205;44.868;38.140;2022-10-14T02:18:34;17.30;;;10.28;;
62852;SDS011;49205;44.868;38.140;2022-10-14T02:21:23;16.90;;;9.18;;
62852;SDS011;49205;44.868;38.140;2022-10-14T02:26:43;16.07;;;9.58;;
62852;SDS011;49205;44.868;38.140;2022-10-14T02:29:13;21.15;;;10.40;;
62852;SDS011;49205;44.868;38.140;2022-10-14T02:31:45;21.85;;;10.85;;
62852;SDS011;49205;44.868;38.140;2022-10-14T02:34:17;18.15;;;10.20;;
62852;SDS011;49205;44.868;38.140;2022-10-14T02:36:48;20.35;;;11.25;;
62852;SDS011;49205;44.868;38.140;2022-10-14T02:39:28;19.25;;;10.68;;
62852;SDS011;49205;44.868;38.140;2022-10-14T02:41:53;15.03;;;9.53;;
62852;SDS011;49205;44.868;38.140;2022-10-14T02:44:22;17.12;;;10.70;;
62852;SDS011;49205;44.868;38.140;2022-10-14T02:46:53;18.05;;;9.80;;
62852;SDS011;49205;44.868;38.140;2022-10-14T02:49:22;19.50;;;10.23;;
62852;SDS011;49205;44.868;38.140;2022-10-14T02:51:51;16.15;;;9.63;;
62852;SDS011;49205;44.868;38.140;2022-10-14T02:54:21;19.30;;;10.60;;
62852;SDS011;49205;44.868;38.140;2022-10-14T02:56:50;17.02;;;10.25;;
62852;SDS011;49205;44.868;38.140;2022-10-14T02:59:19;21.05;;;10.88;;
62852;SDS011;49205;44.868;38.140;2022-10-14T03:01:48;15.78;;;9.58;;
62852;SDS011;49205;44.868;38.140;2022-10-14T03:04:19;20.97;;;11.35;;
62852;SDS011;49205;44.868;38.140;2022-10-14T03:06:50;17.42;;;10.43;;
62852;SDS011;49205;44.868;38.140;2022-10-14T03:09:21;15.80;;;10.20;;
62852;SDS011;49205;44.868;38.140;2022-10-14T03:11:50;19.20;;;10.50;;
62852;SDS011;49205;44.868;38.140;2022-10-14T03:14:20;13.45;;;9.73;;
62852;SDS011;49205;44.868;38.140;2022-10-14T03:16:50;19.60;;;11.70;;
62852;SDS011;49205;44.868;38.140;2022-10-14T03:19:21;31.75;;;11.97;;
62852;SDS011;49205;44.868;38.140;2022-10-14T03:21:52;28.50;;;12.40;;
62852;SDS011;49205;44.868;38.140;2022-10-14T03:24:21;28.02;;;12.03;;
62852;SDS011;49205;44.868;38.140;2022-10-14T03:26:52;18.90;;;9.15;;
62852;SDS011;49205;44.868;38.140;2022-10-14T03:29:22;19.55;;;10.38;;
62852;SDS011;49205;44.868;38.140;2022-10-14T03:31:56;22.27;;;11.60;;
62852;SDS011;49205;44.868;38.140;2022-10-14T03:34:29;24.12;;;10.18;;
62852;SDS011;49205;44.868;38.140;2022-10-14T03:37:03;18.67;;;10.25;;
62852;SDS011;49205;44.868;38.140;2022-10-14T03:39:35;16.25;;;10.18;;
62852;SDS011;49205;44.868;38.140;2022-10-14T03:42:06;18.10;;;10.10;;
62852;SDS011;49205;44.868;38.140;2022-10-14T03:44:37;15.60;;;9.60;;
62852;SDS011;49205;44.868;38.140;2022-10-14T03:47:13;14.73;;;9.60;;
62852;SDS011;49205;44.868;38.140;2022-10-14T03:49:43;18.05;;;10.35;;
62852;SDS011;49205;44.868;38.140;2022-10-14T03:52:14;19.20;;;10.20;;
62852;SDS011;49205;44.868;38.140;2022-10-14T03:54:43;16.20;;;9.95;;
62852;SDS011;49205;44.868;38.140;2022-10-14T03:57:14;23.02;;;9.53;;
62852;SDS011;49205;44.868;38.140;2022-10-14T03:59:45;15.72;;;9.38;;
62852;SDS011;49205;44.868;38.140;2022-10-14T04:02:15;16.55;;;9.50;;
62852;SDS011;49205;44.868;38.140;2022-10-14T04:04:45;19.70;;;10.70;;
62852;SDS011;49205;44.868;38.140;2022-10-14T04:07:15;14.73;;;9.63;;
62852;SDS011;49205;44.868;38.140;2022-10-14T04:09:46;19.92;;;10.53;;
62852;SDS011;49205;44.868;38.140;2022-10-14T04:12:15;19.37;;;10.70;;
62852;SDS011;49205;44.868;38.140;2022-10-14T04:14:46;22.25;;;9.85;;
62852;SDS011;49205;44.868;38.140;2022-10-14T04:17:16;19.92;;;11.25;;
62852;SDS011;49205;44.868;38.140;2022-10-14T04:19:45;21.37;;;11.10;;
62852;SDS011;49205;44.868;38.140;2022-10-14T04:22:15;25.10;;;12.25;;
62852;SDS011;49205;44.868;38.140;2022-10-14T04:24:46;26.57;;;12.33;;
62852;SDS011;49205;44.868;38.140;2022-10-14T04:27:16;24.45;;;12.30;;
62852;SDS011;49205;44.868;38.140;2022-10-14T04:29:50;18.80;;;10.85;;
62852;SDS011;49205;44.868;38.140;2022-10-14T04:32:20;22.87;;;11.70;;
62852;SDS011;49205;44.868;38.140;2022-10-14T04:34:51;27.42;;;13.18;;
62852;SDS011;49205;44.868;38.140;2022-10-14T04:37:21;24.43;;;12.53;;
62852;SDS011;49205;44.868;38.140;2022-10-14T04:40:04;35.73;;;18.95;;
62852;SDS011;49205;44.868;38.140;2022-10-14T04:42:35;22.60;;;12.85;;
62852;SDS011;49205;44.868;38.140;2022-10-14T04:45:05;27.02;;;11.85;;
62852;SDS011;49205;44.868;38.140;2022-10-14T04:47:36;22.27;;;11.68;;
62852;SDS011;49205;44.868;38.140;2022-10-14T04:50:06;27.02;;;11.03;;
62852;SDS011;49205;44.868;38.140;2022-10-14T04:52:35;21.40;;;12.90;;
62852;SDS011;49205;44.868;38.140;2022-10-14T04:55:09;71.17;;;42.67;;
62852;SDS011;49205;44.868;38.140;2022-10-14T04:57:40;42.50;;;20.72;;
62852;SDS011;49205;44.868;38.140;2022-10-14T05:00:15;15.65;;;11.97;;
62852;SDS011;49205;44.868;38.140;2022-10-14T05:02:49;17.07;;;11.68;;
62852;SDS011;49205;44.868;38.140;2022-10-14T05:05:18;17.95;;;11.68;;
62852;SDS011;49205;44.868;38.140;2022-10-14T05:07:49;30.62;;;11.93;;
62852;SDS011;49205;44.868;38.140;2022-10-14T05:10:20;21.82;;;11.12;;
62852;SDS011;49205;44.868;38.140;2022-10-14T05:12:49;21.97;;;12.37;;
62852;SDS011;49205;44.868;38.140;2022-10-14T05:15:19;23.38;;;12.98;;
62852;SDS011;49205;44.868;38.140;2022-10-14T05:17:56;21.20;;;13.00;;
62852;SDS011;49205;44.868;38.140;2022-10-14T05:20:27;21.82;;;12.43;;
62852;SDS011;49205;44.868;38.140;2022-10-14T05:22:57;30.32;;;13.08;;
62852;SDS011;49205;44.868;38.140;2022-10-14T05:25:27;21.40;;;11.60;;
62852;SDS011;49205;44.868;38.140;2022-10-14T05:27:56;17.35;;;12.73;;
62852;SDS011;49205;44.868;38.140;2022-10-14T05:30:25;19.57;;;11.45;;
62852;SDS011;49205;44.868;38.140;2022-10-14T05:32:55;17.67;;;10.78;;
62852;SDS011;49205;44.868;38.140;2022-10-14T05:35:24;25.23;;;11.35;;
62852;SDS011;49205;44.868;38.140;2022-10-14T05:37:54;20.40;;;12.07;;
62852;SDS011;49205;44.868;38.140;2022-10-14T05:40:23;16.37;;;11.22;;
62852;SDS011;49205;44.868;38.140;2022-10-14T05:42:52;21.90;;;12.00;;
62852;SDS011;49205;44.868;38.140;2022-10-14T05:45:22;20.12;;;12.25;;
62852;SDS011;49205;44.868;38.140;2022-10-14T05:47:52;18.85;;;12.43;;
62852;SDS011;49205;44.868;38.140;2022-10-14T05:50:22;23.92;;;12.07;;
62852;SDS011;49205;44.868;38.140;2022-10-14T05:52:52;18.48;;;12.10;;
62852;SDS011;49205;44.868;38.140;2022-10-14T05:55:23;22.27;;;12.07;;
62852;SDS011;49205;44.868;38.140;2022-10-14T05:57:54;24.05;;;14.25;;
62852;SDS011;49205;44.868;38.140;2022-10-14T06:00:25;20.52;;;14.73;;
62852;SDS011;49205;44.868;38.140;2022-10-14T06:02:56;25.12;;;15.03;;
62852;SDS011;49205;44.868;38.140;2022-10-14T06:05:26;33.08;;;15.60;;
62852;SDS011;49205;44.868;38.140;2022-10-14T06:07:55;21.85;;;14.15;;
62852;SDS011;49205;44.868;38.140;2022-10-14T06:10:24;27.37;;;13.68;;
62852;SDS011;49205;44.868;38.140;2022-10-14T06:12:54;30.15;;;15.43;;
62852;SDS011;49205;44.868;38.140;2022-10-14T06:15:25;23.50;;;14.07;;
62852;SDS011;49205;44.868;38.140;2022-10-14T06:17:54;20.55;;;13.48;;
62852;SDS011;49205;44.868;38.140;2022-10-14T06:20:24;23.18;;;13.60;;
62852;SDS011;49205;44.868;38.140;2022-10-14T06:22:54;24.27;;;15.20;;
62852;SDS011;49205;44.868;38.140;2022-10-14T06:25:22;20.37;;;13.78;;
62852;SDS011;49205;44.868;38.140;2022-10-14T06:27:52;30.37;;;15.28;;
62852;SDS011;49205;44.868;38.140;2022-10-14T06:30:21;23.25;;;14.53;;
62852;SDS011;49205;44.868;38.140;2022-10-14T06:32:51;21.25;;;14.13;;
62852;SDS011;49205;44.868;38.140;2022-10-14T06:35:20;27.42;;;15.13;;
62852;SDS011;49205;44.868;38.140;2022-10-14T06:37:49;20.97;;;14.28;;
62852;SDS011;49205;44.868;38.140;2022-10-14T06:40:18;22.15;;;14.35;;
62852;SDS011;49205;44.868;38.140;2022-10-14T06:42:48;26.40;;;15.63;;
62852;SDS011;49205;44.868;38.140;2022-10-14T06:45:18;22.77;;;13.68;;
62852;SDS011;49205;44.868;38.140;2022-10-14T06:47:47;34.73;;;14.38;;
62852;SDS011;49205;44.868;38.140;2022-10-14T06:50:16;22.77;;;14.65;;
62852;SDS011;49205;44.868;38.140;2022-10-14T06:52:45;30.05;;;15.10;;
62852;SDS011;49205;44.868;38.140;2022-10-14T06:55:15;39.70;;;16.35;;
62852;SDS011;49205;44.868;38.140;2022-10-14T06:57:44;24.12;;;15.25;;
62852;SDS011;49205;44.868;38.140;2022-10-14T07:00:13;31.97;;;15.20;;
62852;SDS011;49205;44.868;38.140;2022-10-14T07:02:43;31.15;;;16.75;;
62852;SDS011;49205;44.868;38.140;2022-10-14T07:05:12;29.67;;;17.70;;
62852;SDS011;49205;44.868;38.140;2022-10-14T07:07:41;31.90;;;15.35;;
62852;SDS011;49205;44.868;38.140;2022-10-14T07:10:11;24.70;;;14.30;;
62852;SDS011;49205;44.868;38.140;2022-10-14T07:12:40;21.95;;;14.58;;
62852;SDS011;49205;44.868;38.140;2022-10-14T07:15:09;23.15;;;13.75;;
62852;SDS011;49205;44.868;38.140;2022-10-14T07:17:39;25.62;;;13.48;;
62852;SDS011;49205;44.868;38.140;2022-10-14T07:20:08;25.92;;;13.38;;
62852;SDS011;49205;44.868;38.140;2022-10-14T07:22:38;29.75;;;16.32;;
62852;SDS011;49205;44.868;38.140;2022-10-14T07:25:07;27.13;;;15.32;;
62852;SDS011;49205;44.868;38.140;2022-10-14T07:27:37;25.62;;;15.10;;
62852;SDS011;49205;44.868;38.140;2022-10-14T07:30:06;22.65;;;14.38;;
62852;SDS011;49205;44.868;38.140;2022-10-14T07:32:36;27.15;;;14.55;;
62852;SDS011;49205;44.868;38.140;2022-10-14T07:35:05;20.30;;;12.78;;
62852;SDS011;49205;44.868;38.140;2022-10-14T07:37:34;21.85;;;12.55;;
62852;SDS011;49205;44.868;38.140;2022-10-14T07:40:04;26.10;;;14.25;;
62852;SDS011;49205;44.868;38.140;2022-10-14T07:42:34;22.50;;;13.30;;
62852;SDS011;49205;44.868;38.140;2022-10-14T07:45:03;23.77;;;13.13;;
62852;SDS011;49205;44.868;38.140;2022-10-14T07:47:33;20.72;;;12.68;;
62852;SDS011;49205;44.868;38.140;2022-10-14T07:50:02;18.12;;;12.80;;
62852;SDS011;49205;44.868;38.140;2022-10-14T07:52:31;23.77;;;14.05;;
62852;SDS011;49205;44.868;38.140;2022-10-14T07:55:00;17.73;;;13.68;;
62852;SDS011;49205;44.868;38.140;2022-10-14T07:57:30;17.25;;;11.08;;
62852;SDS011;49205;44.868;38.140;2022-10-14T08:00:00;18.60;;;13.18;;
62852;SDS011;49205;44.868;38.140;2022-10-14T08:02:31;19.92;;;12.43;;
62852;SDS011;49205;44.868;38.140;2022-10-14T08:05:00;16.52;;;13.25;;
62852;SDS011;49205;44.868;38.140;2022-10-14T08:07:30;20.43;;;14.45;;
62852;SDS011;49205;44.868;38.140;2022-10-14T08:09:59;20.10;;;13.68;;
62852;SDS011;49205;44.868;38.140;2022-10-14T08:12:28;18.92;;;13.35;;
62852;SDS011;49205;44.868;38.140;2022-10-14T08:14:58;21.45;;;13.20;;
62852;SDS011;49205;44.868;38.140;2022-10-14T08:17:27;24.12;;;14.63;;
62852;SDS011;49205;44.868;38.140;2022-10-14T08:19:56;21.77;;;14.38;;
62852;SDS011;49205;44.868;38.140;2022-10-14T08:22:26;19.20;;;13.85;;
62852;SDS011;49205;44.868;38.140;2022-10-14T08:24:55;24.25;;;15.65;;
62852;SDS011;49205;44.868;38.140;2022-10-14T08:27:24;22.10;;;15.30;;
62852;SDS011;49205;44.868;38.140;2022-10-14T08:29:53;20.05;;;13.88;;
62852;SDS011;49205;44.868;38.140;2022-10-14T08:32:23;37.17;;;23.50;;
62852;SDS011;49205;44.868;38.140;2022-10-14T08:34:52;24.85;;;16.77;;
62852;SDS011;49205;44.868;38.140;2022-10-14T08:37:22;25.52;;;16.65;;
62852;SDS011;49205;44.868;38.140;2022-10-14T08:39:51;21.30;;;13.75;;
62852;SDS011;49205;44.868;38.140;2022-10-14T08:45:29;22.58;;;15.50;;
62852;SDS011;49205;44.868;38.140;2022-10-14T08:48:01;25.48;;;15.63;;
62852;SDS011;49205;44.868;38.140;2022-10-14T08:50:40;20.90;;;14.00;;
62852;SDS011;49205;44.868;38.140;2022-10-14T08:53:16;19.02;;;13.72;;
62852;SDS011;49205;44.868;38.140;2022-10-14T08:55:52;24.80;;;13.53;;
62852;SDS011;49205;44.868;38.140;2022-10-14T08:58:27;23.10;;;14.85;;
62852;SDS011;49205;44.868;38.140;2022-10-14T09:01:02;21.82;;;14.03;;
62852;SDS011;49205;44.868;38.140;2022-10-14T09:03:48;20.00;;;13.50;;
62852;SDS011;49205;44.868;38.140;2022-10-14T09:06:23;26.95;;;14.80;;
62852;SDS011;49205;44.868;38.140;2022-10-14T09:08:51;24.02;;;13.70;;
62852;SDS011;49205;44.868;38.140;2022-10-14T09:11:28;20.10;;;13.53;;
62852;SDS011;49205;44.868;38.140;2022-10-14T09:14:00;18.45;;;14.00;;
62852;SDS011;49205;44.868;38.140;2022-10-14T09:16:35;19.00;;;13.28;;
62852;SDS011;49205;44.868;38.140;2022-10-14T09:21:42;24.92;;;12.70;;
62852;SDS011;49205;44.868;38.140;2022-10-14T09:24:26;16.90;;;12.55;;
62852;SDS011;49205;44.868;38.140;2022-10-14T09:29:40;16.85;;;12.10;;
62852;SDS011;49205;44.868;38.140;2022-10-14T09:32:14;20.40;;;12.73;;
62852;SDS011;49205;44.868;38.140;2022-10-14T09:34:48;16.33;;;11.70;;
62852;SDS011;49205;44.868;38.140;2022-10-14T09:37:30;15.20;;;10.60;;
62852;SDS011;49205;44.868;38.140;2022-10-14T09:40:00;17.60;;;12.10;;
62852;SDS011;49205;44.868;38.140;2022-10-14T09:45:10;17.90;;;11.10;;
62852;SDS011;49205;44.868;38.140;2022-10-14T09:47:58;21.35;;;12.07;;
62852;SDS011;49205;44.868;38.140;2022-10-14T09:50:26;18.73;;;11.30;;
62852;SDS011;49205;44.868;38.140;2022-10-14T09:53:07;18.67;;;10.95;;
62852;SDS011;49205;44.868;38.140;2022-10-14T09:55:47;14.13;;;10.72;;
62852;SDS011;49205;44.868;38.140;2022-10-14T09:58:19;20.40;;;12.20;;
62852;SDS011;49205;44.868;38.140;2022-10-14T10:00:56;15.85;;;11.10;;
62852;SDS011;49205;44.868;38.140;2022-10-14T10:03:27;22.77;;;12.50;;
62852;SDS011;49205;44.868;38.140;2022-10-14T10:06:04;17.45;;;10.95;;
62852;SDS011;49205;44.868;38.140;2022-10-14T10:08:35;15.65;;;10.93;;
62852;SDS011;49205;44.868;38.140;2022-10-14T10:11:10;19.42;;;11.53;;
62852;SDS011;49205;44.868;38.140;2022-10-14T10:13:44;18.45;;;11.45;;
62852;SDS011;49205;44.868;38.140;2022-10-14T10:18:52;16.93;;;11.83;;
62852;SDS011;49205;44.868;38.140;2022-10-14T10:21:24;14.63;;;11.40;;
62852;SDS011;49205;44.868;38.140;2022-10-14T10:23:59;14.65;;;10.18;;
62852;SDS011;49205;44.868;38.140;2022-10-14T10:26:32;15.98;;;10.03;;
62852;SDS011;49205;44.868;38.140;2022-10-14T10:29:02;14.53;;;9.23;;
62852;SDS011;49205;44.868;38.140;2022-10-14T10:39:37;19.77;;;11.80;;
62852;SDS011;49205;44.868;38.140;2022-10-14T10:42:14;19.30;;;11.55;;
62852;SDS011;49205;44.868;38.140;2022-10-14T10:50:24;18.05;;;11.12;;
62852;SDS011;49205;44.868;38.140;2022-10-14T10:55:47;16.90;;;10.75;;
62852;SDS011;49205;44.868;38.140;2022-10-14T11:09:29;15.90;;;9.33;;
62852;SDS011;49205;44.868;38.140;2022-10-14T11:12:21;14.65;;;9.80;;
62852;SDS011;49205;44.868;38.140;2022-10-14T11:22:57;15.70;;;6.62;;
62852;SDS011;49205;44.868;38.140;2022-10-14T11:25:46;7.37;;;4.62;;
62852;SDS011;49205;44.868;38.140;2022-10-14T11:34:17;9.78;;;7.10;;
62852;SDS011;49205;44.868;38.140;2022-10-14T11:42:12;12.15;;;7.85;;
62852;SDS011;49205;44.868;38.140;2022-10-14T11:44:40;35.55;;;10.32;;
62852;SDS011;49205;44.868;38.140;2022-10-14T11:47:14;14.73;;;10.00;;
62852;SDS011;49205;44.868;38.140;2022-10-14T11:49:56;19.48;;;8.95;;
62852;SDS011;49205;44.868;38.140;2022-10-14T11:52:55;16.17;;;8.90;;
62852;SDS011;49205;44.868;38.140;2022-10-14T11:55:22;14.47;;;8.63;;
62852;SDS011;49205;44.868;38.140;2022-10-14T11:57:56;15.18;;;8.40;;
62852;SDS011;49205;44.868;38.140;2022-10-14T12:00:27;17.62;;;10.43;;
62852;SDS011;49205;44.868;38.140;2022-10-14T12:03:20;15.18;;;9.25;;
62852;SDS011;49205;44.868;38.140;2022-10-14T12:06:09;16.80;;;9.25;;
62852;SDS011;49205;44.868;38.140;2022-10-14T12:09:07;14.87;;;8.88;;
62852;SDS011;49205;44.868;38.140;2022-10-14T12:11:38;13.95;;;7.42;;
62852;SDS011;49205;44.868;38.140;2022-10-14T12:16:48;10.45;;;7.20;;
62852;SDS011;49205;44.868;38.140;2022-10-14T12:19:27;13.95;;;6.47;;
62852;SDS011;49205;44.868;38.140;2022-10-14T12:24:29;17.07;;;9.10;;
62852;SDS011;49205;44.868;38.140;2022-10-14T12:26:57;23.60;;;7.67;;
62852;SDS011;49205;44.868;38.140;2022-10-14T12:29:31;12.82;;;8.10;;
62852;SDS011;49205;44.868;38.140;2022-10-14T12:32:06;12.23;;;7.70;;
62852;SDS011;49205;44.868;38.140;2022-10-14T12:34:39;19.80;;;8.75;;
62852;SDS011;49205;44.868;38.140;2022-10-14T12:45:24;12.90;;;6.75;;
62852;SDS011;49205;44.868;38.140;2022-10-14T12:48:06;15.78;;;7.37;;
62852;SDS011;49205;44.868;38.140;2022-10-14T12:50:44;13.75;;;6.95;;
62852;SDS011;49205;44.868;38.140;2022-10-14T12:53:19;11.97;;;7.35;;
62852;SDS011;49205;44.868;38.140;2022-10-14T12:56:02;12.30;;;7.25;;
62852;SDS011;49205;44.868;38.140;2022-10-14T12:58:35;13.68;;;7.08;;
62852;SDS011;49205;44.868;38.140;2022-10-14T13:01:20;10.72;;;5.87;;
62852;SDS011;49205;44.868;38.140;2022-10-14T13:03:55;10.40;;;6.15;;
62852;SDS011;49205;44.868;38.140;2022-10-14T13:06:29;13.68;;;7.58;;
62852;SDS011;49205;44.868;38.140;2022-10-14T13:09:18;26.82;;;7.62;;
62852;SDS011;49205;44.868;38.140;2022-10-14T13:14:20;14.65;;;8.70;;
62852;SDS011;49205;44.868;38.140;2022-10-14T13:16:57;20.75;;;9.30;;
62852;SDS011;49205;44.868;38.140;2022-10-14T13:19:38;16.62;;;10.38;;
62852;SDS011;49205;44.868;38.140;2022-10-14T13:22:03;20.12;;;11.50;;
62852;SDS011;49205;44.868;38.140;2022-10-14T13:24:38;18.32;;;9.60;;
62852;SDS011;49205;44.868;38.140;2022-10-14T13:30:12;22.05;;;12.63;;
62852;SDS011;49205;44.868;38.140;2022-10-14T13:32:56;26.30;;;12.93;;
62852;SDS011;49205;44.868;38.140;2022-10-14T13:35:31;22.02;;;13.50;;
62852;SDS011;49205;44.868;38.140;2022-10-14T13:38:19;21.07;;;11.38;;
62852;SDS011;49205;44.868;38.140;2022-10-14T13:40:55;30.15;;;12.90;;
62852;SDS011;49205;44.868;38.140;2022-10-14T13:43:26;26.05;;;14.07;;
62852;SDS011;49205;44.868;38.140;2022-10-14T13:48:50;25.43;;;14.28;;
62852;SDS011;49205;44.868;38.140;2022-10-14T13:51:25;28.47;;;15.58;;
62852;SDS011;49205;44.868;38.140;2022-10-14T13:54:36;34.75;;;17.77;;
62852;SDS011;49205;44.868;38.140;2022-10-14T13:56:42;53.05;;;24.70;;
62852;SDS011;49205;44.868;38.140;2022-10-14T13:59:19;48.58;;;24.90;;
62852;SDS011;49205;44.868;38.140;2022-10-14T14:01:53;33.30;;;16.65;;
62852;SDS011;49205;44.868;38.140;2022-10-14T14:04:29;56.05;;;25.72;;
62852;SDS011;49205;44.868;38.140;2022-10-14T14:06:56;74.35;;;35.28;;
62852;SDS011;49205;44.868;38.140;2022-10-14T14:09:27;98.82;;;44.23;;
62852;SDS011;49205;44.868;38.140;2022-10-14T14:12:06;100.78;;;43.50;;
62852;SDS011;49205;44.868;38.140;2022-10-14T14:14:35;78.17;;;40.33;;
62852;SDS011;49205;44.868;38.140;2022-10-14T14:17:10;100.78;;;45.80;;
62852;SDS011;49205;44.868;38.140;2022-10-14T14:19:44;84.75;;;40.08;;
62852;SDS011;49205;44.868;38.140;2022-10-14T14:24:46;93.25;;;38.85;;
62852;SDS011;49205;44.868;38.140;2022-10-14T14:27:17;78.78;;;34.98;;
62852;SDS011;49205;44.868;38.140;2022-10-14T14:29:52;76.35;;;34.53;;
62852;SDS011;49205;44.868;38.140;2022-10-14T14:32:19;78.83;;;34.50;;
62852;SDS011;49205;44.868;38.140;2022-10-14T14:34:50;87.95;;;39.15;;
62852;SDS011;49205;44.868;38.140;2022-10-14T14:40:05;123.90;;;54.67;;
62852;SDS011;49205;44.868;38.140;2022-10-14T14:42:37;131.18;;;54.73;;
62852;SDS011;49205;44.868;38.140;2022-10-14T14:45:20;134.25;;;53.55;;
62852;SDS011;49205;44.868;38.140;2022-10-14T14:47:53;144.17;;;58.52;;
62852;SDS011;49205;44.868;38.140;2022-10-14T14:50:28;130.90;;;54.75;;
62852;SDS011;49205;44.868;38.140;2022-10-14T14:58:43;90.62;;;40.88;;
62852;SDS011;49205;44.868;38.140;2022-10-14T15:01:28;96.42;;;38.65;;
62852;SDS011;49205;44.868;38.140;2022-10-14T15:03:55;84.07;;;36.38;;
62852;SDS011;49205;44.868;38.140;2022-10-14T15:06:26;83.87;;;36.73;;
62852;SDS011;49205;44.868;38.140;2022-10-14T15:08:57;87.53;;;34.80;;
62852;SDS011;49205;44.868;38.140;2022-10-14T15:11:28;63.68;;;29.92;;
62852;SDS011;49205;44.868;38.140;2022-10-14T15:13:57;51.18;;;24.37;;
62852;SDS011;49205;44.868;38.140;2022-10-14T15:19:34;31.55;;;17.07;;
62852;SDS011;49205;44.868;38.140;2022-10-14T15:22:08;24.90;;;13.95;;
62852;SDS011;49205;44.868;38.140;2022-10-14T15:25:02;22.77;;;10.68;;
62852;SDS011;49205;44.868;38.140;2022-10-14T15:28:01;18.27;;;11.53;;
62852;SDS011;49205;44.868;38.140;2022-10-14T15:30:22;18.82;;;8.33;;
62852;SDS011;49205;44.868;38.140;2022-10-14T15:33:03;11.35;;;7.00;;
62852;SDS011;49205;44.868;38.140;2022-10-14T15:35:43;25.12;;;11.00;;
62852;SDS011;49205;44.868;38.140;2022-10-14T15:38:19;13.53;;;8.25;;
62852;SDS011;49205;44.868;38.140;2022-10-14T15:40:44;17.20;;;8.68;;
62852;SDS011;49205;44.868;38.140;2022-10-14T15:43:16;15.68;;;8.23;;
62852;SDS011;49205;44.868;38.140;2022-10-14T15:45:47;16.73;;;8.95;;
62852;SDS011;49205;44.868;38.140;2022-10-14T15:48:19;16.65;;;10.08;;
62852;SDS011;49205;44.868;38.140;2022-10-14T15:50:49;20.52;;;11.60;;
62852;SDS011;49205;44.868;38.140;2022-10-14T15:53:18;21.70;;;10.43;;
62852;SDS011;49205;44.868;38.140;2022-10-14T15:55:47;21.17;;;12.33;;
62852;SDS011;49205;44.868;38.140;2022-10-14T15:58:19;27.50;;;12.65;;
62852;SDS011;49205;44.868;38.140;2022-10-14T16:00:48;29.10;;;13.78;;
62852;SDS011;49205;44.868;38.140;2022-10-14T16:03:18;42.27;;;17.52;;
62852;SDS011;49205;44.868;38.140;2022-10-14T16:05:47;36.38;;;17.82;;
62852;SDS011;49205;44.868;38.140;2022-10-14T16:08:17;33.40;;;16.87;;
62852;SDS011;49205;44.868;38.140;2022-10-14T16:10:46;43.83;;;18.85;;
62852;SDS011;49205;44.868;38.140;2022-10-14T16:13:15;42.80;;;19.00;;
62852;SDS011;49205;44.868;38.140;2022-10-14T16:15:45;46.33;;;20.60;;
62852;SDS011;49205;44.868;38.140;2022-10-14T16:18:17;58.08;;;24.47;;
62852;SDS011;49205;44.868;38.140;2022-10-14T16:20:50;48.50;;;23.85;;
62852;SDS011;49205;44.868;38.140;2022-10-14T16:23:20;46.83;;;21.30;;
62852;SDS011;49205;44.868;38.140;2022-10-14T16:25:53;54.18;;;25.50;;
62852;SDS011;49205;44.868;38.140;2022-10-14T16:28:23;57.58;;;27.27;;
62852;SDS011;49205;44.868;38.140;2022-10-14T16:30:53;62.78;;;29.45;;
62852;SDS011;49205;44.868;38.140;2022-10-14T16:33:22;62.53;;;26.95;;
62852;SDS011;49205;44.868;38.140;2022-10-14T16:35:53;63.70;;;27.98;;
62852;SDS011;49205;44.868;38.140;2022-10-14T16:38:23;57.03;;;26.30;;
62852;SDS011;49205;44.868;38.140;2022-10-14T16:40:57;64.45;;;26.60;;
62852;SDS011;49205;44.868;38.140;2022-10-14T16:43:26;60.33;;;29.02;;
62852;SDS011;49205;44.868;38.140;2022-10-14T16:45:56;86.97;;;32.93;;
62852;SDS011;49205;44.868;38.140;2022-10-14T16:48:26;63.87;;;29.02;;